Time;durP1;ratioP1;P1;durP2;ratioP2;P2;SDS_P1;SDS_P2;PMS_P1;PMS_P2;Temp;Humidity;BMP_temperature;BMP_pressure;BME280_temperature;BME280_humidity;BME280_pressure;Samples;Min_cycle;Max_cycle;Signal;HPM_P1;HPM_P2
2021/03/07 00:02:02;;;;;;;;;;;-3.00;99.90;;;;;;5089953;28;19908;-75
2021/03/07 00:04:28;;;;;;;;;;;-3.00;99.90;;;;;;5091530;28;20466;-71
2021/03/07 00:06:53;;;;;;;;;;;-3.00;99.90;;;;;;5090737;28;20396;-71
2021/03/07 00:09:19;;;;;;;;;;;-3.00;99.90;;;;;;5089862;28;19912;-73
2021/03/07 00:11:44;;;;;;;;;;;-3.00;99.90;;;;;;5091526;28;19908;-71
2021/03/07 00:14:10;;;;;;;;;;;-3.00;99.90;;;;;;5083913;28;19920;-71
2021/03/07 00:16:35;;;;;;;;;;;-3.00;99.90;;;;;;5083348;28;20007;-71
2021/03/07 00:19:00;;;;;;;;;;;-3.00;99.90;;;;;;5091251;28;19916;-76
2021/03/07 00:21:26;;;;;;;;;;;-3.00;99.90;;;;;;5091152;28;19908;-71
2021/03/07 00:23:51;;;;;;;;;;;-3.10;99.90;;;;;;5091013;28;20254;-71
2021/03/07 00:26:17;;;;;;;;;;;-3.10;99.90;;;;;;5090753;28;19942;-74
2021/03/07 00:28:42;;;;;;;;;;;-3.20;99.90;;;;;;5091473;28;19914;-71
2021/03/07 00:31:08;;;;;;;;;;;-3.20;99.90;;;;;;5091242;28;20363;-71
2021/03/07 00:33:33;;;;;;;;;;;-3.30;99.90;;;;;;5091265;28;19908;-72
2021/03/07 00:35:59;;;;;;;;;;;-3.30;99.90;;;;;;5090607;28;19916;-74
2021/03/07 00:38:24;;;;;;;;;;;-3.30;99.90;;;;;;5089475;28;20270;-71
2021/03/07 00:40:50;;;;;;;;;;;-3.30;99.90;;;;;;5090964;28;19908;-71
2021/03/07 00:43:15;;;;;;;;;;;-3.40;99.90;;;;;;5091029;28;19912;-75
2021/03/07 00:45:41;;;;;;;;;;;-3.50;99.90;;;;;;5090674;28;19908;-71
2021/03/07 00:48:06;;;;;;;;;;;-3.60;99.90;;;;;;5090793;28;19912;-71
2021/03/07 00:50:32;;;;;;;;;;;-3.60;99.90;;;;;;5091983;28;19909;-71
2021/03/07 00:52:57;;;;;;;;;;;-3.60;99.90;;;;;;5094609;28;19914;-73
2021/03/07 00:55:24;;;;;;;;;;;-3.50;99.90;;;;;;5094688;28;20383;-71
2021/03/07 00:57:49;;;;;;;;;;;-3.60;99.90;;;;;;5094347;28;19912;-71
2021/03/07 01:00:17;;;;;;;;;;;-3.70;99.90;;;;;;5094647;28;20272;-71
2021/03/07 01:02:43;;;;;;;;;;;-3.70;99.90;;;;;;5094527;28;19908;-71
2021/03/07 01:05:09;;;;;;;;;;;-3.70;99.90;;;;;;5094335;28;19916;-71
2021/03/07 01:07:34;;;;;;;;;;;-3.70;99.90;;;;;;5093706;28;21242;-73
2021/03/07 01:10:00;;;;;;;;;;;-3.80;99.90;;;;;;5094385;28;19908;-71
2021/03/07 01:12:25;;;;;;;;;;;-3.80;99.90;;;;;;5094219;28;20283;-71
2021/03/07 01:14:51;;;;;;;;;;;-3.80;99.90;;;;;;5094780;28;20413;-71
2021/03/07 01:17:17;;;;;;;;;;;-3.80;99.90;;;;;;5094345;28;19908;-72
2021/03/07 01:19:42;;;;;;;;;;;-3.80;99.90;;;;;;5094210;28;19908;-74
2021/03/07 01:22:08;;;;;;;;;;;-3.90;99.90;;;;;;5093954;28;19908;-71
2021/03/07 01:24:33;;;;;;;;;;;-3.90;99.90;;;;;;5094181;28;20003;-71
2021/03/07 01:26:59;;;;;;;;;;;-3.90;99.90;;;;;;5093739;28;19913;-71
2021/03/07 01:29:24;;;;;;;;;;;-3.90;99.90;;;;;;5094034;28;19915;-75
2021/03/07 01:31:51;;;;;;;;;;;-3.90;99.90;;;;;;5094083;28;19908;-71
2021/03/07 01:34:16;;;;;;;;;;;-3.90;99.90;;;;;;5093758;28;19916;-74
2021/03/07 01:36:42;;;;;;;;;;;-3.90;99.90;;;;;;5092080;28;20265;-71
2021/03/07 01:39:07;;;;;;;;;;;-3.90;99.90;;;;;;5109618;28;19950;-71
2021/03/07 01:41:33;;;;;;;;;;;-3.90;99.90;;;;;;5114225;28;19961;-74
2021/03/07 01:43:58;;;;;;;;;;;-3.90;99.90;;;;;;5114219;28;19907;-71
2021/03/07 01:46:24;;;;;;;;;;;-3.90;99.90;;;;;;5081890;28;20361;-71
2021/03/07 01:48:50;;;;;;;;;;;-3.90;99.90;;;;;;5086593;28;19908;-71
2021/03/07 01:51:15;;;;;;;;;;;-3.90;99.90;;;;;;5093723;28;20284;-71
2021/03/07 01:53:41;;;;;;;;;;;-3.90;99.90;;;;;;5093779;28;19908;-73
2021/03/07 01:56:07;;;;;;;;;;;-3.90;99.90;;;;;;5093306;28;19969;-71
2021/03/07 01:58:35;;;;;;;;;;;-3.90;99.90;;;;;;5093461;28;19943;-75
2021/03/07 02:01:01;;;;;;;;;;;-3.90;99.90;;;;;;5093474;28;19908;-70
2021/03/07 02:03:26;;;;;;;;;;;-3.80;99.90;;;;;;5092723;28;19999;-71
2021/03/07 02:05:52;;;;;;;;;;;-3.80;99.90;;;;;;5092876;28;19908;-71
2021/03/07 02:08:18;;;;;;;;;;;-3.80;99.90;;;;;;5091514;28;20390;-74
2021/03/07 02:10:48;;;;;;;;;;;-3.90;99.90;;;;;;5093008;28;19947;-72
2021/03/07 02:13:15;;;;;;;;;;;-3.90;99.90;;;;;;5093209;28;20369;-72
2021/03/07 02:15:42;;;;;;;;;;;-3.80;99.90;;;;;;5082440;28;19919;-71
2021/03/07 02:18:08;;;;;;;;;;;-3.90;99.90;;;;;;5082158;28;19953;-71
2021/03/07 02:20:35;;;;;;;;;;;-3.80;99.90;;;;;;5092901;28;20338;-71
2021/03/07 02:23:05;;;;;;;;;;;-3.90;99.90;;;;;;5093429;28;19908;-71
2021/03/07 02:25:31;;;;;;;;;;;-3.90;99.90;;;;;;5092917;28;20288;-71
2021/03/07 02:27:57;;;;;;;;;;;-4.00;99.90;;;;;;5092590;28;19916;-71
2021/03/07 02:30:23;;;;;;;;;;;-4.00;99.90;;;;;;5092721;28;19908;-71
2021/03/07 02:32:52;;;;;;;;;;;-4.00;99.90;;;;;;5091339;28;19908;-71
2021/03/07 02:35:19;;;;;;;;;;;-4.10;99.90;;;;;;5092607;28;19916;-71
2021/03/07 02:37:46;;;;;;;;;;;-4.10;99.90;;;;;;5104347;28;19908;-72
2021/03/07 02:40:12;;;;;;;;;;;-4.10;99.90;;;;;;5112700;28;20002;-75
2021/03/07 02:42:39;;;;;;;;;;;-4.20;99.90;;;;;;5113007;28;20002;-71
2021/03/07 02:45:06;;;;;;;;;;;-4.20;99.90;;;;;;5111658;28;19939;-71
2021/03/07 02:47:32;;;;;;;;;;;-4.20;99.90;;;;;;5112385;28;20208;-71
2021/03/07 02:50:00;;;;;;;;;;;-4.20;99.90;;;;;;5112907;28;19908;-76
2021/03/07 02:52:25;;;;;;;;;;;-4.20;99.90;;;;;;5112704;28;20015;-71
2021/03/07 02:54:52;;;;;;;;;;;-4.20;99.90;;;;;;5112697;28;19947;-71
2021/03/07 02:57:18;;;;;;;;;;;-4.20;99.90;;;;;;5112278;28;19908;-71
2021/03/07 02:59:45;;;;;;;;;;;-4.20;99.90;;;;;;5112648;28;19908;-72
2021/03/07 03:02:10;;;;;;;;;;;-4.10;99.90;;;;;;5112387;28;19935;-70
2021/03/07 03:04:37;;;;;;;;;;;-4.10;99.90;;;;;;5112607;28;20272;-71
2021/03/07 03:07:03;;;;;;;;;;;-4.10;99.90;;;;;;5103890;28;20361;-71
2021/03/07 03:09:29;;;;;;;;;;;-4.20;99.90;;;;;;5091900;28;19951;-71
2021/03/07 03:11:56;;;;;;;;;;;-4.20;99.90;;;;;;5091863;28;19908;-73
2021/03/07 03:14:22;;;;;;;;;;;-4.30;99.90;;;;;;5089633;28;19995;-71
2021/03/07 03:16:50;;;;;;;;;;;-4.30;99.90;;;;;;5081453;28;20337;-70
2021/03/07 03:19:16;;;;;;;;;;;-4.30;99.90;;;;;;5090376;28;20056;-70
2021/03/07 03:21:43;;;;;;;;;;;-4.30;99.90;;;;;;5091834;28;19954;-70
2021/03/07 03:24:09;;;;;;;;;;;-4.30;99.90;;;;;;5091929;28;19915;-70
2021/03/07 03:26:35;;;;;;;;;;;-4.30;99.90;;;;;;5091431;28;19912;-75
2021/03/07 03:29:02;;;;;;;;;;;-4.30;99.90;;;;;;5091753;28;19915;-70
2021/03/07 03:31:28;;;;;;;;;;;-4.30;99.90;;;;;;5090308;28;19939;-70
2021/03/07 03:33:53;;;;;;;;;;;-4.40;99.90;;;;;;5090444;28;19993;-71
2021/03/07 03:36:19;;;;;;;;;;;-4.40;99.90;;;;;;5089711;28;19924;-70
2021/03/07 03:38:46;;;;;;;;;;;-4.40;99.90;;;;;;5091452;28;20128;-70
2021/03/07 03:41:13;;;;;;;;;;;-4.40;99.90;;;;;;5091732;28;19995;-70
2021/03/07 03:43:39;;;;;;;;;;;-4.40;99.90;;;;;;5091731;28;19916;-72
2021/03/07 03:46:05;;;;;;;;;;;-4.40;99.90;;;;;;5089941;28;19908;-70
2021/03/07 03:48:34;;;;;;;;;;;-4.50;99.90;;;;;;5085316;28;19916;-70
2021/03/07 03:51:00;;;;;;;;;;;-4.50;99.90;;;;;;5090230;28;20272;-70
2021/03/07 03:53:27;;;;;;;;;;;-4.50;99.90;;;;;;5091204;28;20444;-74
2021/03/07 03:55:53;;;;;;;;;;;-4.50;99.90;;;;;;5090922;28;19908;-73
2021/03/07 03:58:22;;;;;;;;;;;-4.50;99.90;;;;;;5091121;28;19911;-72
2021/03/07 04:00:48;;;;;;;;;;;-4.50;99.90;;;;;;5091053;28;20335;-72
2021/03/07 04:03:14;;;;;;;;;;;-4.50;99.90;;;;;;5091093;28;20412;-72
2021/03/07 04:05:45;;;;;;;;;;;-4.60;99.90;;;;;;5090817;28;19960;-76
2021/03/07 04:08:11;;;;;;;;;;;-4.50;99.90;;;;;;5089459;28;19915;-74
2021/03/07 04:10:37;;;;;;;;;;;-4.50;99.90;;;;;;5090829;28;19908;-73
2021/03/07 04:13:03;;;;;;;;;;;-4.50;99.90;;;;;;5090958;28;19935;-73
2021/03/07 04:15:30;;;;;;;;;;;-4.50;99.90;;;;;;5090829;28;19912;-74
2021/03/07 04:17:56;;;;;;;;;;;-4.50;99.90;;;;;;5081679;28;19915;-73
2021/03/07 04:20:21;;;;;;;;;;;-4.50;99.90;;;;;;5090576;28;19912;-72
2021/03/07 04:22:50;;;;;;;;;;;-4.50;99.90;;;;;;5091374;28;19915;-73
2021/03/07 04:25:16;;;;;;;;;;;-4.50;99.90;;;;;;5091797;28;19918;-72
2021/03/07 04:27:42;;;;;;;;;;;-4.50;99.90;;;;;;5094626;28;20289;-73
2021/03/07 04:30:08;;;;;;;;;;;-4.50;99.90;;;;;;5093723;28;19915;-72
2021/03/07 04:32:34;;;;;;;;;;;-4.50;99.90;;;;;;5093956;28;20311;-72
2021/03/07 04:35:00;;;;;;;;;;;-4.50;99.90;;;;;;5094860;28;20269;-72
2021/03/07 04:37:26;;;;;;;;;;;-4.50;99.90;;;;;;5092875;28;19919;-74
2021/03/07 04:39:52;;;;;;;;;;;-4.50;99.90;;;;;;5108221;28;19933;-73
2021/03/07 04:42:18;;;;;;;;;;;-4.50;99.90;;;;;;5115283;28;19995;-73
2021/03/07 04:44:43;;;;;;;;;;;-4.50;99.90;;;;;;5115042;28;20417;-73
2021/03/07 04:47:09;;;;;;;;;;;-4.50;99.90;;;;;;5114686;28;20339;-75
2021/03/07 04:49:34;;;;;;;;;;;-4.60;99.90;;;;;;5115007;28;19953;-70
2021/03/07 04:52:00;;;;;;;;;;;-4.50;99.90;;;;;;5115020;28;20019;-70
2021/03/07 04:54:25;;;;;;;;;;;-4.50;99.90;;;;;;5114826;28;19959;-72
2021/03/07 04:56:51;;;;;;;;;;;-4.50;99.90;;;;;;5114491;28;19999;-70
2021/03/07 04:59:16;;;;;;;;;;;-4.60;99.90;;;;;;5114732;28;19955;-70
2021/03/07 05:01:42;;;;;;;;;;;-4.60;99.90;;;;;;5113394;28;19908;-71
2021/03/07 05:04:07;;;;;;;;;;;-4.60;99.90;;;;;;5114608;28;20378;-71
2021/03/07 05:06:38;;;;;;;;;;;-4.60;99.90;;;;;;5109846;28;19934;-70
2021/03/07 05:09:04;;;;;;;;;;;-4.50;99.90;;;;;;5093891;28;19908;-75
2021/03/07 05:11:29;;;;;;;;;;;-4.50;99.90;;;;;;5094115;28;19908;-76
2021/03/07 05:13:55;;;;;;;;;;;-4.50;99.90;;;;;;5094159;28;19914;-71
2021/03/07 05:16:20;;;;;;;;;;;-4.50;99.90;;;;;;5093899;28;20383;-70
2021/03/07 05:18:46;;;;;;;;;;;-4.50;99.90;;;;;;5094066;28;19912;-71
2021/03/07 05:21:12;;;;;;;;;;;-4.50;99.90;;;;;;5093901;28;19931;-72
2021/03/07 05:23:38;;;;;;;;;;;-4.50;99.90;;;;;;5093661;28;19915;-71
2021/03/07 05:26:04;;;;;;;;;;;-4.40;99.90;;;;;;5092211;28;19912;-70
2021/03/07 05:28:30;;;;;;;;;;;-4.40;99.90;;;;;;5093901;28;20416;-70
2021/03/07 05:30:55;;;;;;;;;;;-4.50;99.90;;;;;;5093727;28;19908;-70
2021/03/07 05:33:21;;;;;;;;;;;-4.50;99.90;;;;;;5094268;28;20268;-71
2021/03/07 05:35:48;;;;;;;;;;;-4.40;99.90;;;;;;5093308;28;20399;-72
2021/03/07 05:38:13;;;;;;;;;;;-4.40;99.90;;;;;;5106710;28;20280;-70
2021/03/07 05:40:39;;;;;;;;;;;-4.40;99.90;;;;;;5113969;28;19908;-70
2021/03/07 05:43:05;;;;;;;;;;;-4.40;99.90;;;;;;5112598;28;19908;-71
2021/03/07 05:45:30;;;;;;;;;;;-4.40;99.90;;;;;;5102082;28;20292;-71
2021/03/07 05:47:56;;;;;;;;;;;-4.50;99.90;;;;;;5084831;28;19951;-70
2021/03/07 05:50:22;;;;;;;;;;;-4.50;99.90;;;;;;5093203;28;20388;-71
2021/03/07 05:52:48;;;;;;;;;;;-4.50;99.90;;;;;;5093370;28;19908;-70
2021/03/07 05:55:14;;;;;;;;;;;-4.50;99.90;;;;;;5093504;28;19908;-70
2021/03/07 05:57:40;;;;;;;;;;;-4.50;99.90;;;;;;5093016;28;20258;-70
2021/03/07 06:00:06;;;;;;;;;;;-4.60;99.90;;;;;;5092025;28;20018;-70
2021/03/07 06:02:32;;;;;;;;;;;-4.60;99.90;;;;;;5092939;28;19909;-71
2021/03/07 06:04:57;;;;;;;;;;;-4.60;99.90;;;;;;5093094;28;19908;-70
2021/03/07 06:07:23;;;;;;;;;;;-4.60;99.90;;;;;;5090967;28;20007;-74
2021/03/07 06:10:08;;;;;;;;;;;-4.50;99.90;;;;;;5093038;28;20333;-71
2021/03/07 06:12:34;;;;;;;;;;;-4.50;99.90;;;;;;5092964;28;20341;-71
2021/03/07 06:15:00;;;;;;;;;;;-4.50;99.90;;;;;;5093244;28;19908;-71
2021/03/07 06:17:36;;;;;;;;;;;-4.50;99.90;;;;;;5083488;28;19909;-71
2021/03/07 06:20:04;;;;;;;;;;;-4.50;99.90;;;;;;5079245;28;19912;-71
2021/03/07 06:22:30;;;;;;;;;;;-4.40;99.90;;;;;;5092500;28;19908;-74
2021/03/07 06:24:56;;;;;;;;;;;-4.40;99.90;;;;;;5092811;28;19915;-71
2021/03/07 06:27:22;;;;;;;;;;;-4.40;99.90;;;;;;5087185;28;19912;-71
2021/03/07 06:29:57;;;;;;;;;;;-4.40;99.90;;;;;;5084397;28;19954;-74
2021/03/07 06:32:24;;;;;;;;;;;-4.30;99.90;;;;;;5092487;28;19908;-71
2021/03/07 06:34:50;;;;;;;;;;;-4.30;99.90;;;;;;5092613;28;19916;-73
2021/03/07 06:37:15;;;;;;;;;;;-4.30;99.90;;;;;;5089571;28;19934;-71
2021/03/07 06:39:41;;;;;;;;;;;-4.20;99.90;;;;;;5092895;28;20004;-71
2021/03/07 06:42:07;;;;;;;;;;;-4.20;99.90;;;;;;5092566;28;19912;-71
2021/03/07 06:44:34;;;;;;;;;;;-4.20;99.90;;;;;;5092385;28;19909;-71
2021/03/07 06:47:26;;;;;;;;;;;-4.10;99.90;;;;;;5091931;28;19912;-75
2021/03/07 06:50:06;;;;;;;;;;;-4.00;99.90;;;;;;5091076;28;20319;-74
2021/03/07 06:52:31;;;;;;;;;;;-3.90;99.90;;;;;;5092441;28;19909;-71
2021/03/07 06:55:11;;;;;;;;;;;-3.90;99.90;;;;;;5092450;28;19908;-71
2021/03/07 06:57:36;;;;;;;;;;;-3.80;99.90;;;;;;5091848;28;19916;-71
2021/03/07 07:00:03;;;;;;;;;;;-3.70;99.90;;;;;;5092401;28;19909;-73
2021/03/07 07:02:29;;;;;;;;;;;-3.60;99.90;;;;;;5092431;28;19954;-71
2021/03/07 07:04:54;;;;;;;;;;;-3.60;99.90;;;;;;5090924;28;19911;-72
2021/03/07 07:07:21;;;;;;;;;;;-3.50;99.90;;;;;;5090308;28;20337;-71
2021/03/07 07:09:48;;;;;;;;;;;-3.50;99.90;;;;;;5092078;28;19951;-71
2021/03/07 07:12:21;;;;;;;;;;;-3.40;99.90;;;;;;5090692;28;20375;-71
2021/03/07 07:14:47;;;;;;;;;;;-3.30;99.90;;;;;;5092038;28;19919;-71
2021/03/07 07:17:17;;;;;;;;;;;-3.30;99.90;;;;;;5091903;28;19908;-71
2021/03/07 07:19:43;;;;;;;;;;;-3.20;99.90;;;;;;5090556;28;19931;-76
2021/03/07 07:22:11;;;;;;;;;;;-3.10;99.90;;;;;;5091946;28;20293;-73
2021/03/07 07:24:37;;;;;;;;;;;-2.90;99.90;;;;;;5091744;28;19962;-75
2021/03/07 07:27:02;;;;;;;;;;;-2.80;99.90;;;;;;5091395;28;20443;-74
2021/03/07 07:29:28;;;;;;;;;;;-2.70;99.90;;;;;;5091830;28;20259;-71
2021/03/07 07:32:00;;;;;;;;;;;-2.60;99.90;;;;;;5091719;28;19908;-71
2021/03/07 07:34:27;;;;;;;;;;;-2.40;99.90;;;;;;5091655;28;19912;-71
2021/03/07 07:36:56;;;;;;;;;;;-2.30;99.90;;;;;;5089760;28;19908;-73
2021/03/07 07:39:24;;;;;;;;;;;-2.10;99.90;;;;;;5091471;28;19908;-71
2021/03/07 07:41:50;;;;;;;;;;;-2.00;99.90;;;;;;5091399;28;19914;-73
2021/03/07 07:44:25;;;;;;;;;;;-1.90;99.90;;;;;;5091711;28;20043;-73
2021/03/07 07:46:52;;;;;;;;;;;-1.70;99.90;;;;;;5084042;28;20292;-75
2021/03/07 07:49:36;;;;;;;;;;;-1.50;99.90;;;;;;5084677;28;20388;-72
2021/03/07 07:52:22;;;;;;;;;;;-1.40;99.90;;;;;;5077717;28;19961;-72
2021/03/07 07:54:49;;;;;;;;;;;-1.20;99.90;;;;;;5091043;28;19947;-75
2021/03/07 07:57:37;;;;;;;;;;;-1.10;99.90;;;;;;5090994;28;20357;-72
2021/03/07 08:00:04;;;;;;;;;;;-0.90;99.90;;;;;;5091033;28;19915;-72
2021/03/07 08:02:42;;;;;;;;;;;-0.70;99.90;;;;;;5091201;28;19908;-72
2021/03/07 08:05:19;;;;;;;;;;;-0.50;99.90;;;;;;5091178;28;19939;-74
2021/03/07 08:08:01;;;;;;;;;;;-0.40;99.90;;;;;;5089247;28;19912;-72
2021/03/07 08:10:47;;;;;;;;;;;-0.20;99.90;;;;;;5089400;28;20007;-72
2021/03/07 08:13:32;;;;;;;;;;;0.00;99.90;;;;;;5090898;28;20349;-73
2021/03/07 08:15:59;;;;;;;;;;;0.20;99.90;;;;;;5086935;28;20226;-73
2021/03/07 08:18:43;;;;;;;;;;;0.60;99.90;;;;;;5075168;28;19912;-73
2021/03/07 08:21:08;;;;;;;;;;;1.10;99.90;;;;;;5086455;28;19912;-73
2021/03/07 08:23:52;;;;;;;;;;;1.90;99.90;;;;;;5090905;28;19931;-75
2021/03/07 08:26:18;;;;;;;;;;;2.70;99.90;;;;;;5090626;28;20007;-77
2021/03/07 08:28:43;;;;;;;;;;;3.70;99.90;;;;;;5090950;28;20011;-73
2021/03/07 08:31:29;;;;;;;;;;;4.70;99.80;;;;;;5089301;28;19923;-73
2021/03/07 08:34:15;;;;;;;;;;;5.50;98.60;;;;;;5089858;28;19956;-76
2021/03/07 08:36:50;;;;;;;;;;;6.50;96.10;;;;;;5088258;28;20008;-78
2021/03/07 08:39:16;;;;;;;;;;;7.30;94.10;;;;;;5090341;28;20070;-74
2021/03/07 08:41:41;;;;;;;;;;;8.00;94.00;;;;;;5089442;28;20510;-76
2021/03/07 08:44:10;;;;;;;;;;;8.70;93.20;;;;;;5091057;28;20007;-76
2021/03/07 08:46:39;;;;;;;;;;;9.20;91.20;;;;;;5081522;28;19913;-76
2021/03/07 08:49:09;;;;;;;;;;;9.60;89.90;;;;;;5084598;28;19999;-76
2021/03/07 08:51:36;;;;;;;;;;;9.70;87.20;;;;;;5089932;28;19915;-76
2021/03/07 08:54:03;;;;;;;;;;;9.80;86.60;;;;;;5089984;28;19912;-77
2021/03/07 08:56:29;;;;;;;;;;;9.80;87.60;;;;;;5089243;28;19927;-76
2021/03/07 08:58:55;;;;;;;;;;;10.10;86.90;;;;;;5076512;28;19908;-77
2021/03/07 09:01:20;;;;;;;;;;;10.00;83.90;;;;;;5073822;28;20354;-74
2021/03/07 09:03:56;;;;;;;;;;;9.70;85.50;;;;;;5090467;28;20074;-74
2021/03/07 09:06:26;;;;;;;;;;;9.50;86.50;;;;;;5088852;28;19915;-74
2021/03/07 09:09:00;;;;;;;;;;;9.30;85.60;;;;;;5089903;28;19916;-75
2021/03/07 09:11:25;;;;;;;;;;;9.00;87.70;;;;;;5089255;28;19948;-75
2021/03/07 09:13:51;;;;;;;;;;;8.80;87.90;;;;;;5089562;28;20401;-75
2021/03/07 09:16:16;;;;;;;;;;;8.70;89.40;;;;;;5085580;28;19908;-75
2021/03/07 09:18:42;;;;;;;;;;;8.60;89.20;;;;;;5093709;28;19908;-75
2021/03/07 09:21:11;;;;;;;;;;;8.50;89.60;;;;;;5092046;28;19958;-75
2021/03/07 09:23:47;;;;;;;;;;;8.50;89.60;;;;;;5093379;28;19999;-75
2021/03/07 09:26:22;;;;;;;;;;;8.60;89.30;;;;;;5092925;28;20357;-75
2021/03/07 09:28:51;;;;;;;;;;;8.50;88.50;;;;;;5086620;28;19919;-76
2021/03/07 09:31:34;;;;;;;;;;;8.30;89.70;;;;;;5093734;28;19908;-75
2021/03/07 09:34:00;;;;;;;;;;;8.20;89.60;;;;;;5093847;28;20320;-76
2021/03/07 09:36:27;;;;;;;;;;;8.00;88.80;;;;;;5091743;28;19931;-75
2021/03/07 09:38:55;;;;;;;;;;;7.60;88.50;;;;;;5093407;28;19909;-75
2021/03/07 09:41:28;;;;;;;;;;;7.30;89.00;;;;;;5093611;28;19909;-75
2021/03/07 09:43:54;;;;;;;;;;;7.10;90.10;;;;;;5094154;28;19909;-75
2021/03/07 09:46:19;;;;;;;;;;;7.10;90.80;;;;;;5083639;28;20109;-75
2021/03/07 09:48:46;;;;;;;;;;;7.40;91.00;;;;;;5084257;28;19930;-76
2021/03/07 09:51:15;;;;;;;;;;;8.00;91.10;;;;;;5090138;28;19912;-76
2021/03/07 09:53:41;;;;;;;;;;;8.70;90.50;;;;;;5085196;28;19986;-76
2021/03/07 09:56:20;;;;;;;;;;;9.60;90.00;;;;;;5083989;28;19915;-76
2021/03/07 09:58:46;;;;;;;;;;;10.20;85.60;;;;;;5086682;28;20393;-75
2021/03/07 10:01:11;;;;;;;;;;;10.80;84.10;;;;;;5079065;28;19912;-76
2021/03/07 10:03:37;;;;;;;;;;;11.30;84.60;;;;;;5085940;28;20273;-76
2021/03/07 10:06:10;;;;;;;;;;;11.70;82.40;;;;;;5092555;28;19908;-76
2021/03/07 10:08:36;;;;;;;;;;;12.10;82.10;;;;;;5092226;28;19956;-76
2021/03/07 10:11:14;;;;;;;;;;;12.40;80.20;;;;;;5092911;28;19908;-77
2021/03/07 10:13:40;;;;;;;;;;;12.60;79.40;;;;;;5093025;28;19908;-76
2021/03/07 10:16:08;;;;;;;;;;;12.70;78.80;;;;;;5092703;28;19947;-76
2021/03/07 10:18:33;;;;;;;;;;;13.00;78.90;;;;;;5079211;28;19951;-76
2021/03/07 10:20:59;;;;;;;;;;;13.30;77.80;;;;;;5086558;28;20408;-76
2021/03/07 10:23:29;;;;;;;;;;;13.60;75.90;;;;;;5092478;28;19970;-76
2021/03/07 10:25:54;;;;;;;;;;;14.00;75.10;;;;;;5085773;28;19915;-76
2021/03/07 10:28:24;;;;;;;;;;;14.30;74.20;;;;;;5092400;28;20391;-76
2021/03/07 10:30:51;;;;;;;;;;;14.60;73.50;;;;;;5092710;28;19947;-76
2021/03/07 10:33:16;;;;;;;;;;;14.90;72.20;;;;;;5090009;28;19915;-76
2021/03/07 10:35:57;;;;;;;;;;;15.20;70.30;;;;;;5092211;28;20438;-76
2021/03/07 10:38:23;;;;;;;;;;;15.20;70.40;;;;;;5099012;28;19960;-76
2021/03/07 10:40:48;;;;;;;;;;;15.40;69.80;;;;;;5091179;28;19912;-76
2021/03/07 10:43:14;;;;;;;;;;;15.00;70.40;;;;;;5092553;28;20018;-76
2021/03/07 10:45:39;;;;;;;;;;;15.00;67.60;;;;;;5092207;28;19947;-76
2021/03/07 10:48:06;;;;;;;;;;;15.00;69.10;;;;;;5092324;28;19954;-76
2021/03/07 10:50:32;;;;;;;;;;;15.10;67.80;;;;;;5092231;28;19908;-76
2021/03/07 10:52:58;;;;;;;;;;;15.20;67.70;;;;;;5086799;28;19931;-76
2021/03/07 10:55:24;;;;;;;;;;;15.40;67.20;;;;;;5091081;28;19988;-76
2021/03/07 10:57:50;;;;;;;;;;;15.10;68.10;;;;;;5089578;28;19908;-76
2021/03/07 11:00:16;;;;;;;;;;;14.70;66.10;;;;;;5091304;28;20041;-76
2021/03/07 11:02:42;;;;;;;;;;;14.20;66.40;;;;;;5091267;28;19908;-76
2021/03/07 11:05:08;;;;;;;;;;;13.70;66.50;;;;;;5090713;28;20341;-76
2021/03/07 11:07:34;;;;;;;;;;;13.30;67.00;;;;;;5090021;28;20013;-76
2021/03/07 11:09:59;;;;;;;;;;;13.20;66.50;;;;;;5092099;28;19954;-76
2021/03/07 11:12:25;;;;;;;;;;;13.10;65.60;;;;;;5090723;28;19998;-76
2021/03/07 11:14:50;;;;;;;;;;;13.00;67.00;;;;;;5090744;28;19934;-76
2021/03/07 11:17:16;;;;;;;;;;;13.10;66.00;;;;;;5091656;28;19912;-76
2021/03/07 11:19:41;;;;;;;;;;;13.40;65.90;;;;;;5092098;28;20445;-76
2021/03/07 11:22:07;;;;;;;;;;;13.90;66.30;;;;;;5091691;28;20386;-76
2021/03/07 11:24:32;;;;;;;;;;;14.20;64.30;;;;;;5092044;28;19915;-76
2021/03/07 11:26:57;;;;;;;;;;;14.50;63.70;;;;;;5090259;28;20010;-76
2021/03/07 11:29:23;;;;;;;;;;;14.70;63.60;;;;;;5091801;28;19908;-76
2021/03/07 11:31:48;;;;;;;;;;;14.90;62.70;;;;;;5092134;28;20420;-76
2021/03/07 11:34:14;;;;;;;;;;;14.90;63.00;;;;;;5091547;28;19920;-76
2021/03/07 11:36:40;;;;;;;;;;;14.70;61.80;;;;;;5089230;28;20151;-76
2021/03/07 11:39:06;;;;;;;;;;;14.70;62.70;;;;;;5091644;28;19960;-76
2021/03/07 11:41:31;;;;;;;;;;;14.70;61.00;;;;;;5092113;28;19962;-76
2021/03/07 11:43:56;;;;;;;;;;;14.70;61.00;;;;;;5090510;28;19908;-76
2021/03/07 11:46:22;;;;;;;;;;;14.70;62.80;;;;;;5089973;28;19955;-76
2021/03/07 11:48:48;;;;;;;;;;;14.80;62.50;;;;;;5088509;28;19919;-76
2021/03/07 11:51:14;;;;;;;;;;;15.00;61.50;;;;;;5076714;28;19908;-76
2021/03/07 11:53:39;;;;;;;;;;;15.30;59.20;;;;;;5091289;28;20026;-76
2021/03/07 11:56:05;;;;;;;;;;;15.40;59.10;;;;;;5089880;28;19915;-76
2021/03/07 11:58:30;;;;;;;;;;;15.30;60.90;;;;;;5091480;28;20336;-76
2021/03/07 12:00:56;;;;;;;;;;;15.10;60.70;;;;;;5091388;28;19992;-76
2021/03/07 12:03:21;;;;;;;;;;;14.90;60.70;;;;;;5091175;28;19916;-76
2021/03/07 12:05:47;;;;;;;;;;;14.30;61.30;;;;;;5090846;28;19908;-76
2021/03/07 12:08:12;;;;;;;;;;;14.00;61.90;;;;;;5088449;28;19943;-76
2021/03/07 12:10:38;;;;;;;;;;;13.30;61.10;;;;;;5091481;28;20391;-76
2021/03/07 12:13:03;;;;;;;;;;;12.70;62.10;;;;;;5091652;28;19916;-76
2021/03/07 12:15:29;;;;;;;;;;;12.20;64.20;;;;;;5090132;28;20011;-76
2021/03/07 12:17:54;;;;;;;;;;;11.80;63.90;;;;;;5080625;28;19912;-76
2021/03/07 12:20:19;;;;;;;;;;;11.40;65.90;;;;;;5082106;28;19916;-77
2021/03/07 12:22:48;;;;;;;;;;;11.20;67.40;;;;;;5091257;28;20018;-76
2021/03/07 12:25:14;;;;;;;;;;;11.00;67.80;;;;;;5091397;28;19951;-76
2021/03/07 12:27:40;;;;;;;;;;;10.90;67.90;;;;;;5090797;28;19916;-77
2021/03/07 12:30:06;;;;;;;;;;;10.80;66.60;;;;;;5091405;28;20391;-77
2021/03/07 12:32:31;;;;;;;;;;;10.70;67.70;;;;;;5089787;28;19908;-76
2021/03/07 12:34:57;;;;;;;;;;;10.60;68.60;;;;;;5090906;28;19922;-76
2021/03/07 12:37:22;;;;;;;;;;;10.40;69.10;;;;;;5088173;28;19908;-76
2021/03/07 12:39:48;;;;;;;;;;;10.30;69.40;;;;;;5090964;28;19961;-76
2021/03/07 12:42:13;;;;;;;;;;;10.20;69.60;;;;;;5091364;28;19962;-77
2021/03/07 12:44:39;;;;;;;;;;;10.20;70.30;;;;;;5089724;28;20002;-76
2021/03/07 12:47:04;;;;;;;;;;;10.20;70.80;;;;;;5092704;28;19926;-76
2021/03/07 12:49:30;;;;;;;;;;;10.20;70.80;;;;;;5094645;28;19995;-76
2021/03/07 12:51:56;;;;;;;;;;;10.10;70.10;;;;;;5094886;28;20129;-76
2021/03/07 12:54:21;;;;;;;;;;;10.20;71.70;;;;;;5094826;28;19908;-76
2021/03/07 12:56:47;;;;;;;;;;;10.30;69.90;;;;;;5094573;28;19915;-76
2021/03/07 12:59:12;;;;;;;;;;;10.30;70.10;;;;;;5094799;28;19908;-76
2021/03/07 13:01:37;;;;;;;;;;;10.40;71.00;;;;;;5093316;28;19983;-76
2021/03/07 13:04:03;;;;;;;;;;;10.50;71.30;;;;;;5094469;28;20361;-76
2021/03/07 13:06:29;;;;;;;;;;;10.50;70.50;;;;;;5093084;28;19920;-76
2021/03/07 13:08:54;;;;;;;;;;;10.50;70.20;;;;;;5094334;28;20359;-76
2021/03/07 13:11:20;;;;;;;;;;;10.50;70.60;;;;;;5094522;28;19908;-76
2021/03/07 13:13:45;;;;;;;;;;;10.50;70.90;;;;;;5094534;28;19953;-76
2021/03/07 13:16:11;;;;;;;;;;;10.60;70.60;;;;;;5094077;28;20011;-76
2021/03/07 13:18:36;;;;;;;;;;;10.70;71.40;;;;;;5094122;28;20283;-76
2021/03/07 13:21:03;;;;;;;;;;;10.90;71.50;;;;;;5094212;28;19919;-76
2021/03/07 13:23:30;;;;;;;;;;;10.80;71.70;;;;;;5093989;28;19916;-76
2021/03/07 13:25:56;;;;;;;;;;;10.80;72.50;;;;;;5093878;28;19914;-76
2021/03/07 13:28:22;;;;;;;;;;;10.80;72.10;;;;;;5093956;28;19916;-76
2021/03/07 13:30:47;;;;;;;;;;;10.70;72.40;;;;;;5094123;28;20318;-76
2021/03/07 13:33:13;;;;;;;;;;;10.60;71.30;;;;;;5092573;28;19915;-76
2021/03/07 13:35:38;;;;;;;;;;;10.40;71.50;;;;;;5093815;28;20373;-76
2021/03/07 13:38:05;;;;;;;;;;;10.30;71.50;;;;;;5092509;28;19908;-76
2021/03/07 13:40:31;;;;;;;;;;;10.10;72.30;;;;;;5092636;28;19912;-76
2021/03/07 13:42:58;;;;;;;;;;;10.00;71.80;;;;;;5092493;28;20288;-76
2021/03/07 13:45:24;;;;;;;;;;;9.90;72.90;;;;;;5093703;28;19931;-76
2021/03/07 13:47:50;;;;;;;;;;;9.70;73.40;;;;;;5091830;28;19912;-76
2021/03/07 13:50:15;;;;;;;;;;;9.70;74.30;;;;;;5084239;28;19912;-76
2021/03/07 13:52:41;;;;;;;;;;;9.60;74.30;;;;;;5093316;28;19919;-76
2021/03/07 13:55:07;;;;;;;;;;;9.50;72.80;;;;;;5092533;28;19920;-76
2021/03/07 13:57:32;;;;;;;;;;;9.40;73.80;;;;;;5092910;28;19987;-76
2021/03/07 13:59:57;;;;;;;;;;;9.40;74.10;;;;;;5091931;28;20010;-76
2021/03/07 14:02:23;;;;;;;;;;;9.30;74.30;;;;;;5093125;28;19909;-76
2021/03/07 14:04:48;;;;;;;;;;;9.30;73.10;;;;;;5093577;28;19914;-76
2021/03/07 14:07:14;;;;;;;;;;;9.20;74.90;;;;;;5099874;28;19912;-76
2021/03/07 14:09:39;;;;;;;;;;;9.20;74.70;;;;;;5113530;28;20292;-76
2021/03/07 14:12:05;;;;;;;;;;;9.20;74.80;;;;;;5113524;28;19907;-76
2021/03/07 14:14:31;;;;;;;;;;;9.10;74.80;;;;;;5113522;28;19907;-76
2021/03/07 14:16:56;;;;;;;;;;;9.00;74.90;;;;;;5105823;28;19920;-76
2021/03/07 14:19:22;;;;;;;;;;;9.00;74.20;;;;;;5081565;28;19924;-76